sensor_id;sensor_type;location;lat;lon;timestamp;P1;durP1;ratioP1;P2;durP2;ratioP2
18265;SDS011;9259;48.194;16.322;2022-10-16T00:01:04;248.83;;;67.93;;
18265;SDS011;9259;48.194;16.322;2022-10-16T00:03:33;351.70;;;74.17;;
18265;SDS011;9259;48.194;16.322;2022-10-16T00:06:03;695.20;;;81.40;;
18265;SDS011;9259;48.194;16.322;2022-10-16T00:08:32;576.70;;;75.07;;
18265;SDS011;9259;48.194;16.322;2022-10-16T00:11:01;553.40;;;77.50;;
18265;SDS011;9259;48.194;16.322;2022-10-16T00:13:31;368.03;;;73.27;;
18265;SDS011;9259;48.194;16.322;2022-10-16T00:15:59;399.03;;;80.33;;
18265;SDS011;9259;48.194;16.322;2022-10-16T00:18:28;374.07;;;77.53;;
18265;SDS011;9259;48.194;16.322;2022-10-16T00:21:01;264.60;;;70.63;;
18265;SDS011;9259;48.194;16.322;2022-10-16T00:23:32;356.23;;;75.37;;
18265;SDS011;9259;48.194;16.322;2022-10-16T00:26:01;367.93;;;73.90;;
18265;SDS011;9259;48.194;16.322;2022-10-16T00:28:30;628.00;;;85.07;;
18265;SDS011;9259;48.194;16.322;2022-10-16T00:30:58;567.20;;;85.13;;
18265;SDS011;9259;48.194;16.322;2022-10-16T00:33:29;744.70;;;88.80;;
18265;SDS011;9259;48.194;16.322;2022-10-16T00:35:57;288.50;;;74.93;;
18265;SDS011;9259;48.194;16.322;2022-10-16T00:38:27;422.70;;;81.53;;
18265;SDS011;9259;48.194;16.322;2022-10-16T00:40:55;404.87;;;76.37;;
18265;SDS011;9259;48.194;16.322;2022-10-16T00:43:33;496.30;;;81.60;;
18265;SDS011;9259;48.194;16.322;2022-10-16T00:46:04;228.03;;;79.47;;
18265;SDS011;9259;48.194;16.322;2022-10-16T00:48:37;379.43;;;87.47;;
18265;SDS011;9259;48.194;16.322;2022-10-16T00:51:05;199.43;;;76.70;;
18265;SDS011;9259;48.194;16.322;2022-10-16T00:53:35;267.87;;;82.27;;
18265;SDS011;9259;48.194;16.322;2022-10-16T00:56:03;328.97;;;84.57;;
18265;SDS011;9259;48.194;16.322;2022-10-16T00:58:32;180.23;;;72.83;;
18265;SDS011;9259;48.194;16.322;2022-10-16T01:01:00;208.30;;;75.27;;
18265;SDS011;9259;48.194;16.322;2022-10-16T01:03:29;238.23;;;78.07;;
18265;SDS011;9259;48.194;16.322;2022-10-16T01:06:05;242.13;;;78.60;;
18265;SDS011;9259;48.194;16.322;2022-10-16T01:08:45;228.30;;;76.07;;
18265;SDS011;9259;48.194;16.322;2022-10-16T01:11:22;189.27;;;71.77;;
18265;SDS011;9259;48.194;16.322;2022-10-16T01:13:53;204.47;;;74.23;;
18265;SDS011;9259;48.194;16.322;2022-10-16T01:16:24;189.43;;;73.37;;
18265;SDS011;9259;48.194;16.322;2022-10-16T01:18:57;196.57;;;74.00;;
18265;SDS011;9259;48.194;16.322;2022-10-16T01:21:29;213.17;;;75.00;;
18265;SDS011;9259;48.194;16.322;2022-10-16T01:24:03;196.80;;;72.87;;
18265;SDS011;9259;48.194;16.322;2022-10-16T01:26:37;192.70;;;73.93;;
18265;SDS011;9259;48.194;16.322;2022-10-16T01:29:23;167.80;;;68.70;;
18265;SDS011;9259;48.194;16.322;2022-10-16T01:31:55;165.10;;;66.50;;
18265;SDS011;9259;48.194;16.322;2022-10-16T01:34:27;150.03;;;65.33;;
18265;SDS011;9259;48.194;16.322;2022-10-16T01:37:01;153.47;;;65.27;;
18265;SDS011;9259;48.194;16.322;2022-10-16T01:39:32;162.87;;;66.93;;
18265;SDS011;9259;48.194;16.322;2022-10-16T01:42:04;147.30;;;63.10;;
18265;SDS011;9259;48.194;16.322;2022-10-16T01:44:35;144.40;;;64.37;;
18265;SDS011;9259;48.194;16.322;2022-10-16T01:47:04;138.93;;;65.20;;
18265;SDS011;9259;48.194;16.322;2022-10-16T01:49:34;136.83;;;62.53;;
18265;SDS011;9259;48.194;16.322;2022-10-16T01:52:04;139.00;;;63.40;;
18265;SDS011;9259;48.194;16.322;2022-10-16T01:54:35;121.87;;;60.10;;
18265;SDS011;9259;48.194;16.322;2022-10-16T01:57:04;139.40;;;63.77;;
18265;SDS011;9259;48.194;16.322;2022-10-16T01:59:35;131.60;;;60.07;;
18265;SDS011;9259;48.194;16.322;2022-10-16T02:02:07;126.20;;;61.07;;
18265;SDS011;9259;48.194;16.322;2022-10-16T02:04:38;135.70;;;61.30;;
18265;SDS011;9259;48.194;16.322;2022-10-16T02:07:09;121.27;;;57.07;;
18265;SDS011;9259;48.194;16.322;2022-10-16T02:09:38;126.37;;;58.77;;
18265;SDS011;9259;48.194;16.322;2022-10-16T02:12:08;124.13;;;58.33;;
18265;SDS011;9259;48.194;16.322;2022-10-16T02:14:40;127.23;;;58.93;;
18265;SDS011;9259;48.194;16.322;2022-10-16T02:17:10;119.60;;;58.03;;
18265;SDS011;9259;48.194;16.322;2022-10-16T02:19:38;130.60;;;58.03;;
18265;SDS011;9259;48.194;16.322;2022-10-16T02:22:07;138.93;;;54.03;;
18265;SDS011;9259;48.194;16.322;2022-10-16T02:24:42;148.90;;;54.10;;
18265;SDS011;9259;48.194;16.322;2022-10-16T02:27:13;131.83;;;56.00;;
18265;SDS011;9259;48.194;16.322;2022-10-16T02:29:47;124.30;;;56.70;;
18265;SDS011;9259;48.194;16.322;2022-10-16T02:32:19;110.57;;;54.07;;
18265;SDS011;9259;48.194;16.322;2022-10-16T02:34:49;135.73;;;54.03;;
18265;SDS011;9259;48.194;16.322;2022-10-16T02:37:18;121.90;;;53.57;;
18265;SDS011;9259;48.194;16.322;2022-10-16T02:39:47;117.93;;;54.70;;
18265;SDS011;9259;48.194;16.322;2022-10-16T02:42:15;167.03;;;56.10;;
18265;SDS011;9259;48.194;16.322;2022-10-16T02:44:44;113.17;;;54.53;;
18265;SDS011;9259;48.194;16.322;2022-10-16T02:47:14;136.73;;;56.50;;
18265;SDS011;9259;48.194;16.322;2022-10-16T02:49:42;234.50;;;58.03;;
18265;SDS011;9259;48.194;16.322;2022-10-16T02:52:10;277.13;;;58.50;;
18265;SDS011;9259;48.194;16.322;2022-10-16T02:54:38;174.37;;;54.87;;
18265;SDS011;9259;48.194;16.322;2022-10-16T02:57:06;162.27;;;54.97;;
18265;SDS011;9259;48.194;16.322;2022-10-16T02:59:34;143.67;;;55.50;;
18265;SDS011;9259;48.194;16.322;2022-10-16T03:02:04;125.87;;;55.33;;
18265;SDS011;9259;48.194;16.322;2022-10-16T03:04:32;116.70;;;54.43;;
18265;SDS011;9259;48.194;16.322;2022-10-16T03:07:00;168.53;;;54.67;;
18265;SDS011;9259;48.194;16.322;2022-10-16T03:09:28;113.20;;;53.90;;
18265;SDS011;9259;48.194;16.322;2022-10-16T03:11:56;128.23;;;53.37;;
18265;SDS011;9259;48.194;16.322;2022-10-16T03:14:24;130.13;;;53.57;;
18265;SDS011;9259;48.194;16.322;2022-10-16T03:16:52;125.87;;;53.73;;
18265;SDS011;9259;48.194;16.322;2022-10-16T03:19:22;111.87;;;52.80;;
18265;SDS011;9259;48.194;16.322;2022-10-16T03:21:50;152.57;;;53.77;;
18265;SDS011;9259;48.194;16.322;2022-10-16T03:24:18;136.10;;;53.00;;
18265;SDS011;9259;48.194;16.322;2022-10-16T03:26:46;103.57;;;51.23;;
18265;SDS011;9259;48.194;16.322;2022-10-16T03:29:14;104.10;;;50.30;;
18265;SDS011;9259;48.194;16.322;2022-10-16T03:31:42;96.43;;;48.80;;
18265;SDS011;9259;48.194;16.322;2022-10-16T03:34:10;92.03;;;47.27;;
18265;SDS011;9259;48.194;16.322;2022-10-16T03:36:39;94.97;;;47.27;;
18265;SDS011;9259;48.194;16.322;2022-10-16T03:39:07;85.50;;;44.87;;
18265;SDS011;9259;48.194;16.322;2022-10-16T03:41:35;90.53;;;46.80;;
18265;SDS011;9259;48.194;16.322;2022-10-16T03:44:03;88.37;;;46.70;;
18265;SDS011;9259;48.194;16.322;2022-10-16T03:46:32;91.17;;;46.30;;
18265;SDS011;9259;48.194;16.322;2022-10-16T03:49:00;90.03;;;45.63;;
18265;SDS011;9259;48.194;16.322;2022-10-16T03:51:28;96.20;;;46.27;;
18265;SDS011;9259;48.194;16.322;2022-10-16T03:53:57;95.20;;;46.13;;
18265;SDS011;9259;48.194;16.322;2022-10-16T03:56:25;101.00;;;48.60;;
18265;SDS011;9259;48.194;16.322;2022-10-16T03:58:54;96.77;;;47.40;;
18265;SDS011;9259;48.194;16.322;2022-10-16T04:01:22;108.53;;;49.27;;
18265;SDS011;9259;48.194;16.322;2022-10-16T04:03:50;136.27;;;49.10;;
18265;SDS011;9259;48.194;16.322;2022-10-16T04:06:18;114.93;;;47.57;;
18265;SDS011;9259;48.194;16.322;2022-10-16T04:08:46;160.13;;;47.73;;
18265;SDS011;9259;48.194;16.322;2022-10-16T04:11:15;121.03;;;45.63;;
18265;SDS011;9259;48.194;16.322;2022-10-16T04:13:43;106.30;;;45.63;;
18265;SDS011;9259;48.194;16.322;2022-10-16T04:16:11;194.07;;;46.33;;
18265;SDS011;9259;48.194;16.322;2022-10-16T04:18:39;202.30;;;45.93;;
18265;SDS011;9259;48.194;16.322;2022-10-16T04:21:07;187.17;;;48.00;;
18265;SDS011;9259;48.194;16.322;2022-10-16T04:23:36;160.97;;;43.90;;
18265;SDS011;9259;48.194;16.322;2022-10-16T04:26:04;134.83;;;41.30;;
18265;SDS011;9259;48.194;16.322;2022-10-16T04:28:33;128.83;;;41.90;;
18265;SDS011;9259;48.194;16.322;2022-10-16T04:31:03;272.30;;;45.53;;
18265;SDS011;9259;48.194;16.322;2022-10-16T04:33:31;179.90;;;42.03;;
18265;SDS011;9259;48.194;16.322;2022-10-16T04:35:59;138.90;;;42.23;;
18265;SDS011;9259;48.194;16.322;2022-10-16T04:38:28;241.73;;;44.87;;
18265;SDS011;9259;48.194;16.322;2022-10-16T04:40:56;212.53;;;45.80;;
18265;SDS011;9259;48.194;16.322;2022-10-16T04:43:25;164.03;;;40.53;;
18265;SDS011;9259;48.194;16.322;2022-10-16T04:45:54;264.70;;;40.80;;
18265;SDS011;9259;48.194;16.322;2022-10-16T04:48:23;195.27;;;41.37;;
18265;SDS011;9259;48.194;16.322;2022-10-16T04:50:51;124.97;;;39.07;;
18265;SDS011;9259;48.194;16.322;2022-10-16T04:53:19;118.53;;;36.23;;
18265;SDS011;9259;48.194;16.322;2022-10-16T04:55:47;80.67;;;37.07;;
18265;SDS011;9259;48.194;16.322;2022-10-16T04:58:15;242.83;;;42.43;;
18265;SDS011;9259;48.194;16.322;2022-10-16T05:00:43;69.43;;;35.40;;
18265;SDS011;9259;48.194;16.322;2022-10-16T05:03:13;122.60;;;37.20;;
18265;SDS011;9259;48.194;16.322;2022-10-16T05:05:42;120.60;;;36.57;;
18265;SDS011;9259;48.194;16.322;2022-10-16T05:08:11;67.73;;;34.87;;
18265;SDS011;9259;48.194;16.322;2022-10-16T05:10:40;236.40;;;38.30;;
18265;SDS011;9259;48.194;16.322;2022-10-16T05:13:09;77.03;;;33.77;;
18265;SDS011;9259;48.194;16.322;2022-10-16T05:15:37;81.50;;;34.90;;
18265;SDS011;9259;48.194;16.322;2022-10-16T05:18:06;81.87;;;36.80;;
18265;SDS011;9259;48.194;16.322;2022-10-16T05:20:35;98.73;;;36.90;;
18265;SDS011;9259;48.194;16.322;2022-10-16T05:23:03;87.37;;;36.97;;
18265;SDS011;9259;48.194;16.322;2022-10-16T05:25:32;72.57;;;36.03;;
18265;SDS011;9259;48.194;16.322;2022-10-16T05:28:00;81.40;;;37.57;;
18265;SDS011;9259;48.194;16.322;2022-10-16T05:30:28;88.97;;;38.57;;
18265;SDS011;9259;48.194;16.322;2022-10-16T05:32:56;118.93;;;38.50;;
18265;SDS011;9259;48.194;16.322;2022-10-16T05:35:24;169.37;;;41.37;;
18265;SDS011;9259;48.194;16.322;2022-10-16T05:37:55;136.50;;;41.87;;
18265;SDS011;9259;48.194;16.322;2022-10-16T05:40:23;142.43;;;42.17;;
18265;SDS011;9259;48.194;16.322;2022-10-16T05:42:54;133.20;;;43.60;;
18265;SDS011;9259;48.194;16.322;2022-10-16T05:45:22;206.57;;;44.63;;
18265;SDS011;9259;48.194;16.322;2022-10-16T05:47:50;118.47;;;41.53;;
18265;SDS011;9259;48.194;16.322;2022-10-16T05:50:18;201.87;;;42.97;;
18265;SDS011;9259;48.194;16.322;2022-10-16T05:52:47;261.17;;;41.97;;
18265;SDS011;9259;48.194;16.322;2022-10-16T05:55:16;220.47;;;42.47;;
18265;SDS011;9259;48.194;16.322;2022-10-16T05:57:44;113.17;;;40.40;;
18265;SDS011;9259;48.194;16.322;2022-10-16T06:00:12;267.03;;;45.03;;
18265;SDS011;9259;48.194;16.322;2022-10-16T06:02:40;142.83;;;41.20;;
18265;SDS011;9259;48.194;16.322;2022-10-16T06:05:08;122.27;;;39.97;;
18265;SDS011;9259;48.194;16.322;2022-10-16T06:07:36;96.43;;;40.23;;
18265;SDS011;9259;48.194;16.322;2022-10-16T06:10:05;101.53;;;39.87;;
18265;SDS011;9259;48.194;16.322;2022-10-16T06:12:36;88.80;;;38.23;;
18265;SDS011;9259;48.194;16.322;2022-10-16T06:15:04;73.37;;;38.33;;
18265;SDS011;9259;48.194;16.322;2022-10-16T06:17:32;95.40;;;36.93;;
18265;SDS011;9259;48.194;16.322;2022-10-16T06:20:00;75.87;;;37.20;;
18265;SDS011;9259;48.194;16.322;2022-10-16T06:22:28;76.97;;;37.30;;
18265;SDS011;9259;48.194;16.322;2022-10-16T06:24:56;83.10;;;37.23;;
18265;SDS011;9259;48.194;16.322;2022-10-16T06:27:24;82.33;;;37.30;;
18265;SDS011;9259;48.194;16.322;2022-10-16T06:29:54;102.90;;;38.60;;
18265;SDS011;9259;48.194;16.322;2022-10-16T06:32:23;108.53;;;38.37;;
18265;SDS011;9259;48.194;16.322;2022-10-16T06:34:51;115.20;;;37.37;;
18265;SDS011;9259;48.194;16.322;2022-10-16T06:37:19;115.33;;;39.77;;
18265;SDS011;9259;48.194;16.322;2022-10-16T06:39:47;156.47;;;41.87;;
18265;SDS011;9259;48.194;16.322;2022-10-16T06:42:15;118.97;;;41.70;;
18265;SDS011;9259;48.194;16.322;2022-10-16T06:44:43;124.67;;;43.37;;
18265;SDS011;9259;48.194;16.322;2022-10-16T06:47:13;98.83;;;41.23;;
18265;SDS011;9259;48.194;16.322;2022-10-16T06:49:41;84.43;;;39.97;;
18265;SDS011;9259;48.194;16.322;2022-10-16T06:52:09;126.40;;;42.40;;
18265;SDS011;9259;48.194;16.322;2022-10-16T06:54:37;156.07;;;44.20;;
18265;SDS011;9259;48.194;16.322;2022-10-16T06:57:05;124.87;;;43.50;;
18265;SDS011;9259;48.194;16.322;2022-10-16T06:59:33;91.30;;;42.50;;
18265;SDS011;9259;48.194;16.322;2022-10-16T07:02:01;123.50;;;44.97;;
18265;SDS011;9259;48.194;16.322;2022-10-16T07:04:31;120.20;;;45.20;;
18265;SDS011;9259;48.194;16.322;2022-10-16T07:06:59;175.07;;;46.70;;
18265;SDS011;9259;48.194;16.322;2022-10-16T07:09:28;126.07;;;49.33;;
18265;SDS011;9259;48.194;16.322;2022-10-16T07:11:56;117.33;;;48.63;;
18265;SDS011;9259;48.194;16.322;2022-10-16T07:14:24;126.80;;;50.47;;
18265;SDS011;9259;48.194;16.322;2022-10-16T07:16:52;144.00;;;50.13;;
18265;SDS011;9259;48.194;16.322;2022-10-16T07:19:20;120.90;;;49.73;;
18265;SDS011;9259;48.194;16.322;2022-10-16T07:21:50;116.90;;;49.77;;
18265;SDS011;9259;48.194;16.322;2022-10-16T07:24:18;108.37;;;49.80;;
18265;SDS011;9259;48.194;16.322;2022-10-16T07:26:46;138.40;;;50.57;;
18265;SDS011;9259;48.194;16.322;2022-10-16T07:29:14;135.07;;;47.47;;
18265;SDS011;9259;48.194;16.322;2022-10-16T07:31:43;127.87;;;47.07;;
18265;SDS011;9259;48.194;16.322;2022-10-16T07:34:12;127.73;;;47.47;;
18265;SDS011;9259;48.194;16.322;2022-10-16T07:36:41;119.30;;;44.67;;
18265;SDS011;9259;48.194;16.322;2022-10-16T07:39:10;102.70;;;44.10;;
18265;SDS011;9259;48.194;16.322;2022-10-16T07:41:38;89.43;;;45.33;;
18265;SDS011;9259;48.194;16.322;2022-10-16T07:44:06;120.17;;;47.87;;
18265;SDS011;9259;48.194;16.322;2022-10-16T07:46:34;108.70;;;46.20;;
18265;SDS011;9259;48.194;16.322;2022-10-16T07:49:03;103.17;;;43.50;;
18265;SDS011;9259;48.194;16.322;2022-10-16T07:51:31;178.53;;;44.77;;
18265;SDS011;9259;48.194;16.322;2022-10-16T07:53:59;147.50;;;47.40;;
18265;SDS011;9259;48.194;16.322;2022-10-16T07:56:29;115.13;;;47.33;;
18265;SDS011;9259;48.194;16.322;2022-10-16T07:58:58;145.77;;;47.33;;
18265;SDS011;9259;48.194;16.322;2022-10-16T08:01:26;138.23;;;47.80;;
18265;SDS011;9259;48.194;16.322;2022-10-16T08:03:54;126.07;;;47.10;;
18265;SDS011;9259;48.194;16.322;2022-10-16T08:06:22;99.27;;;48.40;;
18265;SDS011;9259;48.194;16.322;2022-10-16T08:08:50;107.40;;;48.70;;
18265;SDS011;9259;48.194;16.322;2022-10-16T08:11:18;105.17;;;48.27;;
18265;SDS011;9259;48.194;16.322;2022-10-16T08:13:48;116.30;;;49.00;;
18265;SDS011;9259;48.194;16.322;2022-10-16T08:16:16;112.53;;;47.73;;
18265;SDS011;9259;48.194;16.322;2022-10-16T08:18:44;102.07;;;49.27;;
18265;SDS011;9259;48.194;16.322;2022-10-16T08:21:13;108.20;;;47.37;;
18265;SDS011;9259;48.194;16.322;2022-10-16T08:23:42;85.07;;;45.30;;
18265;SDS011;9259;48.194;16.322;2022-10-16T08:26:11;90.27;;;47.73;;
18265;SDS011;9259;48.194;16.322;2022-10-16T08:28:40;96.27;;;46.33;;
18265;SDS011;9259;48.194;16.322;2022-10-16T08:31:10;89.43;;;45.80;;
18265;SDS011;9259;48.194;16.322;2022-10-16T08:33:40;91.37;;;46.67;;
18265;SDS011;9259;48.194;16.322;2022-10-16T08:36:10;79.97;;;43.33;;
18265;SDS011;9259;48.194;16.322;2022-10-16T08:38:38;80.47;;;44.50;;
18265;SDS011;9259;48.194;16.322;2022-10-16T08:41:15;75.50;;;42.07;;
18265;SDS011;9259;48.194;16.322;2022-10-16T08:46:58;77.03;;;42.50;;
18265;SDS011;9259;48.194;16.322;2022-10-16T08:49:32;79.10;;;43.17;;
18265;SDS011;9259;48.194;16.322;2022-10-16T08:52:00;74.90;;;42.27;;
18265;SDS011;9259;48.194;16.322;2022-10-16T08:54:29;81.20;;;43.63;;
18265;SDS011;9259;48.194;16.322;2022-10-16T08:57:07;83.33;;;45.63;;
18265;SDS011;9259;48.194;16.322;2022-10-16T08:59:36;81.53;;;43.87;;
18265;SDS011;9259;48.194;16.322;2022-10-16T09:02:13;87.33;;;46.00;;
18265;SDS011;9259;48.194;16.322;2022-10-16T09:04:54;77.07;;;44.20;;
18265;SDS011;9259;48.194;16.322;2022-10-16T09:07:31;83.63;;;45.80;;
18265;SDS011;9259;48.194;16.322;2022-10-16T09:10:08;81.13;;;45.50;;
18265;SDS011;9259;48.194;16.322;2022-10-16T09:12:44;79.67;;;43.93;;
18265;SDS011;9259;48.194;16.322;2022-10-16T09:15:19;74.55;;;41.80;;
18265;SDS011;9259;48.194;16.322;2022-10-16T09:17:54;75.78;;;43.75;;
18265;SDS011;9259;48.194;16.322;2022-10-16T09:20:29;80.93;;;43.63;;
18265;SDS011;9259;48.194;16.322;2022-10-16T09:23:13;80.78;;;43.55;;
18265;SDS011;9259;48.194;16.322;2022-10-16T09:25:43;75.97;;;43.40;;
18265;SDS011;9259;48.194;16.322;2022-10-16T09:28:15;93.22;;;48.65;;
18265;SDS011;9259;48.194;16.322;2022-10-16T09:30:43;87.82;;;46.72;;
18265;SDS011;9259;48.194;16.322;2022-10-16T09:33:13;86.47;;;46.30;;
18265;SDS011;9259;48.194;16.322;2022-10-16T09:35:42;81.30;;;45.80;;
18265;SDS011;9259;48.194;16.322;2022-10-16T09:38:20;77.97;;;44.58;;
18265;SDS011;9259;48.194;16.322;2022-10-16T09:40:49;73.27;;;42.87;;
18265;SDS011;9259;48.194;16.322;2022-10-16T09:43:20;76.07;;;43.15;;
18265;SDS011;9259;48.194;16.322;2022-10-16T09:45:54;71.63;;;41.77;;
18265;SDS011;9259;48.194;16.322;2022-10-16T09:48:24;71.80;;;41.50;;
18265;SDS011;9259;48.194;16.322;2022-10-16T09:50:58;66.93;;;39.23;;
18265;SDS011;9259;48.194;16.322;2022-10-16T09:53:37;71.33;;;41.83;;
18265;SDS011;9259;48.194;16.322;2022-10-16T09:56:06;67.20;;;39.83;;
18265;SDS011;9259;48.194;16.322;2022-10-16T09:58:41;74.87;;;41.60;;
18265;SDS011;9259;48.194;16.322;2022-10-16T10:01:12;71.33;;;41.97;;
18265;SDS011;9259;48.194;16.322;2022-10-16T10:03:43;72.40;;;42.33;;
18265;SDS011;9259;48.194;16.322;2022-10-16T10:06:22;66.82;;;38.88;;
18265;SDS011;9259;48.194;16.322;2022-10-16T10:08:53;68.90;;;39.43;;
18265;SDS011;9259;48.194;16.322;2022-10-16T10:14:15;71.57;;;41.27;;
18265;SDS011;9259;48.194;16.322;2022-10-16T10:16:45;67.13;;;40.40;;
18265;SDS011;9259;48.194;16.322;2022-10-16T10:19:16;67.90;;;39.15;;
18265;SDS011;9259;48.194;16.322;2022-10-16T10:21:45;67.47;;;38.50;;
18265;SDS011;9259;48.194;16.322;2022-10-16T10:24:13;64.43;;;37.40;;
18265;SDS011;9259;48.194;16.322;2022-10-16T10:26:45;67.53;;;39.83;;
18265;SDS011;9259;48.194;16.322;2022-10-16T10:29:18;67.72;;;39.83;;
18265;SDS011;9259;48.194;16.322;2022-10-16T10:31:56;70.72;;;40.40;;
18265;SDS011;9259;48.194;16.322;2022-10-16T10:34:37;69.53;;;40.70;;
18265;SDS011;9259;48.194;16.322;2022-10-16T10:37:14;71.93;;;40.55;;
18265;SDS011;9259;48.194;16.322;2022-10-16T10:39:52;68.27;;;38.97;;
18265;SDS011;9259;48.194;16.322;2022-10-16T10:42:26;67.82;;;38.80;;
18265;SDS011;9259;48.194;16.322;2022-10-16T10:45:02;67.85;;;38.90;;
18265;SDS011;9259;48.194;16.322;2022-10-16T10:47:47;66.05;;;36.88;;
18265;SDS011;9259;48.194;16.322;2022-10-16T10:50:23;62.70;;;36.95;;
18265;SDS011;9259;48.194;16.322;2022-10-16T10:52:57;68.13;;;38.33;;
18265;SDS011;9259;48.194;16.322;2022-10-16T10:55:29;63.33;;;38.05;;
18265;SDS011;9259;48.194;16.322;2022-10-16T10:58:10;61.22;;;36.80;;
18265;SDS011;9259;48.194;16.322;2022-10-16T11:00:46;55.13;;;33.85;;
18265;SDS011;9259;48.194;16.322;2022-10-16T11:03:25;55.55;;;33.92;;
18265;SDS011;9259;48.194;16.322;2022-10-16T11:06:02;52.00;;;32.30;;
18265;SDS011;9259;48.194;16.322;2022-10-16T11:08:33;51.33;;;31.67;;
18265;SDS011;9259;48.194;16.322;2022-10-16T11:11:03;52.40;;;32.78;;
18265;SDS011;9259;48.194;16.322;2022-10-16T11:13:34;50.53;;;31.15;;
18265;SDS011;9259;48.194;16.322;2022-10-16T11:16:08;54.58;;;33.33;;
18265;SDS011;9259;48.194;16.322;2022-10-16T11:18:42;57.13;;;34.25;;
18265;SDS011;9259;48.194;16.322;2022-10-16T11:21:16;55.33;;;32.88;;
18265;SDS011;9259;48.194;16.322;2022-10-16T11:23:46;61.00;;;35.30;;
18265;SDS011;9259;48.194;16.322;2022-10-16T11:26:19;62.58;;;36.35;;
18265;SDS011;9259;48.194;16.322;2022-10-16T11:28:49;61.55;;;36.72;;
18265;SDS011;9259;48.194;16.322;2022-10-16T11:31:19;58.88;;;36.63;;
18265;SDS011;9259;48.194;16.322;2022-10-16T11:33:54;59.40;;;35.53;;
18265;SDS011;9259;48.194;16.322;2022-10-16T11:36:31;56.88;;;34.50;;
18265;SDS011;9259;48.194;16.322;2022-10-16T11:39:04;55.97;;;35.53;;
18265;SDS011;9259;48.194;16.322;2022-10-16T11:41:39;56.33;;;32.38;;
18265;SDS011;9259;48.194;16.322;2022-10-16T11:44:14;53.58;;;32.30;;
18265;SDS011;9259;48.194;16.322;2022-10-16T11:47:03;53.80;;;33.78;;
18265;SDS011;9259;48.194;16.322;2022-10-16T11:49:36;57.15;;;33.58;;
18265;SDS011;9259;48.194;16.322;2022-10-16T11:52:07;52.15;;;32.38;;
18265;SDS011;9259;48.194;16.322;2022-10-16T11:54:43;55.30;;;32.60;;
18265;SDS011;9259;48.194;16.322;2022-10-16T11:57:15;48.40;;;31.88;;
18265;SDS011;9259;48.194;16.322;2022-10-16T11:59:46;49.60;;;32.05;;
18265;SDS011;9259;48.194;16.322;2022-10-16T12:05:18;53.63;;;33.92;;
18265;SDS011;9259;48.194;16.322;2022-10-16T12:07:53;49.33;;;30.27;;
18265;SDS011;9259;48.194;16.322;2022-10-16T12:10:28;49.28;;;32.00;;
18265;SDS011;9259;48.194;16.322;2022-10-16T12:13:02;46.15;;;29.83;;
18265;SDS011;9259;48.194;16.322;2022-10-16T12:15:31;46.28;;;29.75;;
18265;SDS011;9259;48.194;16.322;2022-10-16T12:18:00;43.53;;;29.23;;
18265;SDS011;9259;48.194;16.322;2022-10-16T12:20:29;46.13;;;30.15;;
18265;SDS011;9259;48.194;16.322;2022-10-16T12:23:02;43.38;;;29.80;;
18265;SDS011;9259;48.194;16.322;2022-10-16T12:25:31;44.08;;;30.10;;
18265;SDS011;9259;48.194;16.322;2022-10-16T12:28:01;41.28;;;29.42;;
18265;SDS011;9259;48.194;16.322;2022-10-16T12:30:31;40.00;;;29.30;;
18265;SDS011;9259;48.194;16.322;2022-10-16T12:33:01;39.72;;;28.23;;
18265;SDS011;9259;48.194;16.322;2022-10-16T12:35:30;42.08;;;29.70;;
18265;SDS011;9259;48.194;16.322;2022-10-16T12:38:08;45.03;;;29.90;;
18265;SDS011;9259;48.194;16.322;2022-10-16T12:40:44;44.33;;;31.33;;
18265;SDS011;9259;48.194;16.322;2022-10-16T12:43:27;43.78;;;29.88;;
18265;SDS011;9259;48.194;16.322;2022-10-16T12:46:04;39.45;;;29.50;;
18265;SDS011;9259;48.194;16.322;2022-10-16T12:48:47;41.10;;;29.25;;
18265;SDS011;9259;48.194;16.322;2022-10-16T12:51:23;40.58;;;29.65;;
18265;SDS011;9259;48.194;16.322;2022-10-16T12:53:59;46.60;;;32.08;;
18265;SDS011;9259;48.194;16.322;2022-10-16T12:56:31;43.00;;;30.98;;
18265;SDS011;9259;48.194;16.322;2022-10-16T12:59:09;44.63;;;31.85;;
18265;SDS011;9259;48.194;16.322;2022-10-16T13:01:47;48.28;;;32.83;;
18265;SDS011;9259;48.194;16.322;2022-10-16T13:04:37;42.10;;;30.40;;
18265;SDS011;9259;48.194;16.322;2022-10-16T13:07:21;43.97;;;32.03;;
18265;SDS011;9259;48.194;16.322;2022-10-16T13:10:04;43.67;;;31.00;;
18265;SDS011;9259;48.194;16.322;2022-10-16T13:15:34;43.22;;;30.90;;
18265;SDS011;9259;48.194;16.322;2022-10-16T13:18:22;48.13;;;32.55;;
18265;SDS011;9259;48.194;16.322;2022-10-16T13:20:57;48.75;;;34.40;;
18265;SDS011;9259;48.194;16.322;2022-10-16T13:23:31;44.05;;;32.30;;
18265;SDS011;9259;48.194;16.322;2022-10-16T13:26:09;47.72;;;32.72;;
18265;SDS011;9259;48.194;16.322;2022-10-16T13:28:42;50.08;;;34.97;;
18265;SDS011;9259;48.194;16.322;2022-10-16T13:31:12;48.17;;;33.15;;
18265;SDS011;9259;48.194;16.322;2022-10-16T13:33:45;51.75;;;35.25;;
18265;SDS011;9259;48.194;16.322;2022-10-16T13:36:20;47.65;;;33.30;;
18265;SDS011;9259;48.194;16.322;2022-10-16T13:38:57;45.28;;;32.80;;
18265;SDS011;9259;48.194;16.322;2022-10-16T13:41:32;49.55;;;35.03;;
18265;SDS011;9259;48.194;16.322;2022-10-16T13:44:00;54.60;;;35.20;;
18265;SDS011;9259;48.194;16.322;2022-10-16T13:46:28;55.75;;;36.78;;
18265;SDS011;9259;48.194;16.322;2022-10-16T13:49:00;54.63;;;36.65;;
18265;SDS011;9259;48.194;16.322;2022-10-16T13:51:29;54.50;;;36.58;;
18265;SDS011;9259;48.194;16.322;2022-10-16T13:53:58;53.50;;;36.92;;
18265;SDS011;9259;48.194;16.322;2022-10-16T13:56:27;56.83;;;38.40;;
18265;SDS011;9259;48.194;16.322;2022-10-16T13:59:01;55.13;;;36.58;;
18265;SDS011;9259;48.194;16.322;2022-10-16T14:01:30;57.55;;;37.70;;
18265;SDS011;9259;48.194;16.322;2022-10-16T14:04:03;58.90;;;38.75;;
18265;SDS011;9259;48.194;16.322;2022-10-16T14:06:33;55.00;;;37.15;;
18265;SDS011;9259;48.194;16.322;2022-10-16T14:09:07;58.47;;;37.30;;
18265;SDS011;9259;48.194;16.322;2022-10-16T14:11:37;61.38;;;36.38;;
18265;SDS011;9259;48.194;16.322;2022-10-16T14:14:13;58.25;;;37.70;;
18265;SDS011;9259;48.194;16.322;2022-10-16T14:16:42;57.15;;;37.20;;
18265;SDS011;9259;48.194;16.322;2022-10-16T14:19:13;56.83;;;39.00;;
18265;SDS011;9259;48.194;16.322;2022-10-16T14:21:46;63.60;;;38.85;;
18265;SDS011;9259;48.194;16.322;2022-10-16T14:24:21;62.85;;;39.22;;
18265;SDS011;9259;48.194;16.322;2022-10-16T14:26:53;57.38;;;37.83;;
18265;SDS011;9259;48.194;16.322;2022-10-16T14:29:24;60.42;;;38.25;;
18265;SDS011;9259;48.194;16.322;2022-10-16T14:31:56;57.15;;;37.00;;
18265;SDS011;9259;48.194;16.322;2022-10-16T14:34:26;53.53;;;34.58;;
18265;SDS011;9259;48.194;16.322;2022-10-16T14:36:59;60.63;;;39.17;;
18265;SDS011;9259;48.194;16.322;2022-10-16T14:39:32;58.78;;;37.45;;
18265;SDS011;9259;48.194;16.322;2022-10-16T14:42:00;58.50;;;38.22;;
18265;SDS011;9259;48.194;16.322;2022-10-16T14:44:31;56.80;;;36.05;;
18265;SDS011;9259;48.194;16.322;2022-10-16T14:47:07;50.70;;;33.22;;
18265;SDS011;9259;48.194;16.322;2022-10-16T14:49:36;49.72;;;33.35;;